sensor_id;sensor_type;location;lat;lon;timestamp;pressure;altitude;pressure_sealevel;temperature;humidity
62402;BME280;48440;51.224;22.506;2023-02-14T00:00:19;100519.72;;;3.98;74.80
62402;BME280;48440;51.224;22.506;2023-02-14T00:02:47;100516.84;;;3.99;74.83
62402;BME280;48440;51.224;22.506;2023-02-14T00:05:12;100520.09;;;3.95;74.74
62402;BME280;48440;51.224;22.506;2023-02-14T00:07:38;100520.09;;;3.95;75.06
62402;BME280;48440;51.224;22.506;2023-02-14T00:10:06;100523.97;;;3.92;74.85
62402;BME280;48440;51.224;22.506;2023-02-14T00:12:32;100522.13;;;3.93;75.25
62402;BME280;48440;51.224;22.506;2023-02-14T00:14:57;100517.59;;;3.93;74.95
62402;BME280;48440;51.224;22.506;2023-02-14T00:17:41;100520.91;;;3.95;75.15
62402;BME280;48440;51.224;22.506;2023-02-14T00:20:10;100519.72;;;3.98;74.70
62402;BME280;48440;51.224;22.506;2023-02-14T00:22:38;100514.53;;;3.96;74.62
62402;BME280;48440;51.224;22.506;2023-02-14T00:25:03;100515.38;;;3.97;74.89
62402;BME280;48440;51.224;22.506;2023-02-14T00:27:29;100512.03;;;3.95;75.19
62402;BME280;48440;51.224;22.506;2023-02-14T00:29:55;100519.91;;;3.96;75.28
62402;BME280;48440;51.224;22.506;2023-02-14T00:32:26;100520.44;;;3.92;75.10
62402;BME280;48440;51.224;22.506;2023-02-14T00:34:52;100521.28;;;3.92;74.76
62402;BME280;48440;51.224;22.506;2023-02-14T00:37:18;100517.75;;;3.92;74.90
62402;BME280;48440;51.224;22.506;2023-02-14T00:39:43;100512.22;;;3.93;75.38
62402;BME280;48440;51.224;22.506;2023-02-14T00:42:08;100518.78;;;3.91;75.43
62402;BME280;48440;51.224;22.506;2023-02-14T00:44:34;100531.19;;;3.92;75.16
62402;BME280;48440;51.224;22.506;2023-02-14T00:46:59;100526.13;;;3.97;75.11
62402;BME280;48440;51.224;22.506;2023-02-14T00:49:25;100521.75;;;3.96;75.07
62402;BME280;48440;51.224;22.506;2023-02-14T00:51:50;100526.94;;;3.97;75.34
62402;BME280;48440;51.224;22.506;2023-02-14T00:54:16;100526.47;;;3.94;75.44
62402;BME280;48440;51.224;22.506;2023-02-14T00:56:41;100527.66;;;3.91;75.59
62402;BME280;48440;51.224;22.506;2023-02-14T00:59:07;100530.19;;;3.93;75.51
62402;BME280;48440;51.224;22.506;2023-02-14T01:01:32;100529.81;;;3.96;75.25
62402;BME280;48440;51.224;22.506;2023-02-14T01:03:58;100532.50;;;3.96;75.27
62402;BME280;48440;51.224;22.506;2023-02-14T01:06:24;100531.84;;;3.94;75.74
62402;BME280;48440;51.224;22.506;2023-02-14T01:08:49;100524.97;;;3.91;75.63
62402;BME280;48440;51.224;22.506;2023-02-14T01:11:17;100534.53;;;3.94;75.64
62402;BME280;48440;51.224;22.506;2023-02-14T01:13:44;100545.63;;;3.91;75.50
62402;BME280;48440;51.224;22.506;2023-02-14T01:16:13;100535.72;;;3.91;75.63
62402;BME280;48440;51.224;22.506;2023-02-14T01:18:39;100536.94;;;3.89;75.84
62402;BME280;48440;51.224;22.506;2023-02-14T01:21:23;100533.25;;;3.90;75.77
62402;BME280;48440;51.224;22.506;2023-02-14T01:23:49;100523.13;;;3.92;75.78
62402;BME280;48440;51.224;22.506;2023-02-14T01:26:16;100531.00;;;3.93;75.62
62402;BME280;48440;51.224;22.506;2023-02-14T01:28:42;100531.19;;;3.92;75.80
62402;BME280;48440;51.224;22.506;2023-02-14T01:31:14;100533.25;;;3.90;75.68
62402;BME280;48440;51.224;22.506;2023-02-14T01:33:40;100536.94;;;3.89;75.54
62402;BME280;48440;51.224;22.506;2023-02-14T01:36:14;100537.22;;;3.94;75.88
62402;BME280;48440;51.224;22.506;2023-02-14T01:38:39;100535.72;;;3.91;75.85
62402;BME280;48440;51.224;22.506;2023-02-14T01:41:05;100538.22;;;3.93;75.87
62402;BME280;48440;51.224;22.506;2023-02-14T01:43:30;100534.91;;;3.91;75.62
62402;BME280;48440;51.224;22.506;2023-02-14T01:45:56;100535.09;;;3.89;76.05
62402;BME280;48440;51.224;22.506;2023-02-14T01:48:21;100537.41;;;3.92;75.80
62402;BME280;48440;51.224;22.506;2023-02-14T01:50:49;100533.25;;;3.90;76.07
62402;BME280;48440;51.224;22.506;2023-02-14T01:53:25;100541.31;;;3.90;75.96
62402;BME280;48440;51.224;22.506;2023-02-14T01:56:00;100546.47;;;3.91;75.67
62402;BME280;48440;51.224;22.506;2023-02-14T01:58:28;100536.75;;;3.90;75.84
62402;BME280;48440;51.224;22.506;2023-02-14T02:00:55;100541.75;;;3.93;75.80
62402;BME280;48440;51.224;22.506;2023-02-14T02:03:23;100541.09;;;3.91;75.86
62402;BME280;48440;51.224;22.506;2023-02-14T02:05:52;100534.28;;;3.89;76.07
62402;BME280;48440;51.224;22.506;2023-02-14T02:08:20;100524.16;;;3.91;76.10
62402;BME280;48440;51.224;22.506;2023-02-14T02:10:45;100537.22;;;3.94;75.51
62402;BME280;48440;51.224;22.506;2023-02-14T02:13:17;100529.34;;;3.92;75.87
62402;BME280;48440;51.224;22.506;2023-02-14T02:15:52;100538.41;;;3.91;76.00
62402;BME280;48440;51.224;22.506;2023-02-14T02:18:35;100538.22;;;3.93;75.52
62402;BME280;48440;51.224;22.506;2023-02-14T02:32:25;100540.91;;;3.93;75.58
62402;BME280;48440;51.224;22.506;2023-02-14T02:40:56;100558.06;;;3.92;75.53
62402;BME280;48440;51.224;22.506;2023-02-14T02:44:01;100558.22;;;3.90;75.74
62402;BME280;48440;51.224;22.506;2023-02-14T02:46:43;100556.38;;;3.91;75.91
62402;BME280;48440;51.224;22.506;2023-02-14T02:49:28;100551.00;;;3.91;75.76
62402;BME280;48440;51.224;22.506;2023-02-14T02:52:39;100547.47;;;3.90;75.84
62402;BME280;48440;51.224;22.506;2023-02-14T02:55:56;100558.22;;;3.90;75.81
62402;BME280;48440;51.224;22.506;2023-02-14T02:59:01;100555.75;;;3.89;75.99
62402;BME280;48440;51.224;22.506;2023-02-14T03:01:33;100554.25;;;3.86;75.78
62402;BME280;48440;51.224;22.506;2023-02-14T03:04:07;100558.22;;;3.90;75.67
62402;BME280;48440;51.224;22.506;2023-02-14T03:06:54;100542.31;;;3.89;75.60
62402;BME280;48440;51.224;22.506;2023-02-14T03:18:10;100554.25;;;3.86;76.36
62402;BME280;48440;51.224;22.506;2023-02-14T03:21:06;100559.44;;;3.88;75.84
62402;BME280;48440;51.224;22.506;2023-02-14T03:23:43;100553.44;;;3.86;75.93
62402;BME280;48440;51.224;22.506;2023-02-14T03:26:25;100563.16;;;3.87;75.85
62402;BME280;48440;51.224;22.506;2023-02-14T03:29:00;100561.13;;;3.89;76.03
62402;BME280;48440;51.224;22.506;2023-02-14T03:31:34;100560.28;;;3.88;76.15
62402;BME280;48440;51.224;22.506;2023-02-14T03:34:15;100554.25;;;3.86;76.24
62402;BME280;48440;51.224;22.506;2023-02-14T03:36:59;100554.44;;;3.85;76.20
62402;BME280;48440;51.224;22.506;2023-02-14T03:39:36;100559.16;;;3.83;75.99
62402;BME280;48440;51.224;22.506;2023-02-14T03:42:07;100563.34;;;3.85;76.31
62402;BME280;48440;51.224;22.506;2023-02-14T03:44:39;100565.00;;;3.86;75.82
62402;BME280;48440;51.224;22.506;2023-02-14T03:47:09;100565.84;;;3.87;75.75
62402;BME280;48440;51.224;22.506;2023-02-14T03:49:40;100560.28;;;3.88;75.97
62402;BME280;48440;51.224;22.506;2023-02-14T03:52:08;100559.44;;;3.88;75.44
62402;BME280;48440;51.224;22.506;2023-02-14T03:54:37;100563.16;;;3.87;75.69
62402;BME280;48440;51.224;22.506;2023-02-14T03:59:37;100558.31;;;3.82;76.07
62402;BME280;48440;51.224;22.506;2023-02-14T04:05:16;100564.81;;;3.88;75.67
62402;BME280;48440;51.224;22.506;2023-02-14T04:07:55;100552.13;;;3.82;75.87
62402;BME280;48440;51.224;22.506;2023-02-14T04:10:22;100548.94;;;3.78;76.35
62402;BME280;48440;51.224;22.506;2023-02-14T04:12:47;100564.53;;;3.83;76.05
62402;BME280;48440;51.224;22.506;2023-02-14T04:15:14;100561.00;;;3.82;75.75
62402;BME280;48440;51.224;22.506;2023-02-14T04:17:40;100561.00;;;3.82;75.79
62402;BME280;48440;51.224;22.506;2023-02-14T04:20:25;100567.22;;;3.83;75.65
62402;BME280;48440;51.224;22.506;2023-02-14T04:22:50;100558.31;;;3.82;75.47
62402;BME280;48440;51.224;22.506;2023-02-14T04:25:16;100561.00;;;3.82;75.79
62402;BME280;48440;51.224;22.506;2023-02-14T04:27:42;100560.00;;;3.83;75.72
62402;BME280;48440;51.224;22.506;2023-02-14T04:30:11;100572.94;;;3.80;75.83
62402;BME280;48440;51.224;22.506;2023-02-14T04:32:39;100571.94;;;3.81;75.80
62402;BME280;48440;51.224;22.506;2023-02-14T04:35:06;100577.47;;;3.79;75.96
62402;BME280;48440;51.224;22.506;2023-02-14T04:37:31;100582.84;;;3.79;76.10
62402;BME280;48440;51.224;22.506;2023-02-14T04:40:00;100589.88;;;3.80;75.99
62402;BME280;48440;51.224;22.506;2023-02-14T04:42:26;100582.50;;;3.82;75.84
62402;BME280;48440;51.224;22.506;2023-02-14T04:44:51;100586.38;;;3.80;75.89
62402;BME280;48440;51.224;22.506;2023-02-14T04:47:17;100584.03;;;3.77;76.15
62402;BME280;48440;51.224;22.506;2023-02-14T04:49:42;100588.22;;;3.79;75.96
62402;BME280;48440;51.224;22.506;2023-02-14T04:52:08;100584.88;;;3.77;76.01
62402;BME280;48440;51.224;22.506;2023-02-14T04:54:33;100594.41;;;3.80;75.87
62402;BME280;48440;51.224;22.506;2023-02-14T04:56:59;100586.38;;;3.80;76.23
62402;BME280;48440;51.224;22.506;2023-02-14T04:59:27;100593.09;;;3.75;76.61
62402;BME280;48440;51.224;22.506;2023-02-14T05:01:53;100588.91;;;3.73;76.61
62402;BME280;48440;51.224;22.506;2023-02-14T05:04:21;100590.59;;;3.74;76.30
62402;BME280;48440;51.224;22.506;2023-02-14T05:06:46;100594.78;;;3.77;76.41
62402;BME280;48440;51.224;22.506;2023-02-14T05:09:11;100597.81;;;3.73;76.38
62402;BME280;48440;51.224;22.506;2023-02-14T05:11:40;100601.16;;;3.75;76.76
62402;BME280;48440;51.224;22.506;2023-02-14T05:14:11;100592.44;;;3.73;76.79
62402;BME280;48440;51.224;22.506;2023-02-14T05:17:15;100597.63;;;3.75;76.25
62402;BME280;48440;51.224;22.506;2023-02-14T05:19:47;100593.63;;;3.71;76.40
62402;BME280;48440;51.224;22.506;2023-02-14T05:22:12;100596.50;;;3.69;76.87
62402;BME280;48440;51.224;22.506;2023-02-14T05:24:38;100587.13;;;3.65;76.98
62402;BME280;48440;51.224;22.506;2023-02-14T05:27:03;100586.28;;;3.65;76.74
62402;BME280;48440;51.224;22.506;2023-02-14T05:29:29;100591.03;;;3.63;76.88
62402;BME280;48440;51.224;22.506;2023-02-14T05:31:54;100587.88;;;3.59;76.99
62402;BME280;48440;51.224;22.506;2023-02-14T05:34:33;100589.34;;;3.62;77.42
62402;BME280;48440;51.224;22.506;2023-02-14T05:36:58;100591.38;;;3.60;77.40
62402;BME280;48440;51.224;22.506;2023-02-14T05:39:24;100581.94;;;3.64;77.63
62402;BME280;48440;51.224;22.506;2023-02-14T05:41:49;100582.59;;;3.66;77.42
62402;BME280;48440;51.224;22.506;2023-02-14T05:44:15;100577.41;;;3.64;77.45
62402;BME280;48440;51.224;22.506;2023-02-14T05:46:40;100576.38;;;3.65;77.55
62402;BME280;48440;51.224;22.506;2023-02-14T05:49:06;100576.56;;;3.64;77.33
62402;BME280;48440;51.224;22.506;2023-02-14T05:51:31;100580.75;;;3.66;77.29
62402;BME280;48440;51.224;22.506;2023-02-14T05:53:56;100579.72;;;3.67;76.75
62402;BME280;48440;51.224;22.506;2023-02-14T05:56:27;100585.09;;;3.67;76.84
62402;BME280;48440;51.224;22.506;2023-02-14T05:58:52;100585.09;;;3.67;76.73
62402;BME280;48440;51.224;22.506;2023-02-14T06:01:18;100592.13;;;3.68;77.20
62402;BME280;48440;51.224;22.506;2023-02-14T06:03:43;100588.78;;;3.66;77.00
62402;BME280;48440;51.224;22.506;2023-02-14T06:06:09;100594.47;;;3.71;77.18
62402;BME280;48440;51.224;22.506;2023-02-14T06:08:34;100599.00;;;3.71;76.71
62402;BME280;48440;51.224;22.506;2023-02-14T06:10:59;100597.50;;;3.68;76.91
62402;BME280;48440;51.224;22.506;2023-02-14T06:13:25;100599.19;;;3.69;76.60
62402;BME280;48440;51.224;22.506;2023-02-14T06:15:50;100593.63;;;3.71;76.42
62402;BME280;48440;51.224;22.506;2023-02-14T06:18:16;100598.53;;;3.67;76.69
62402;BME280;48440;51.224;22.506;2023-02-14T06:20:44;100597.50;;;3.68;77.24
62402;BME280;48440;51.224;22.506;2023-02-14T06:23:10;100594.00;;;3.68;76.82
62402;BME280;48440;51.224;22.506;2023-02-14T06:25:35;100600.19;;;3.68;77.19
62402;BME280;48440;51.224;22.506;2023-02-14T06:28:01;100608.91;;;3.70;77.39
62402;BME280;48440;51.224;22.506;2023-02-14T06:30:27;100611.78;;;3.69;77.15
62402;BME280;48440;51.224;22.506;2023-02-14T06:32:55;100613.63;;;3.68;77.44
62402;BME280;48440;51.224;22.506;2023-02-14T06:35:21;100623.00;;;3.72;77.06
62402;BME280;48440;51.224;22.506;2023-02-14T06:37:47;100614.94;;;3.72;76.93
62402;BME280;48440;51.224;22.506;2023-02-14T06:40:13;100614.09;;;3.72;76.97
62402;BME280;48440;51.224;22.506;2023-02-14T06:42:39;100617.28;;;3.75;76.87
62402;BME280;48440;51.224;22.506;2023-02-14T06:45:05;100611.19;;;3.82;76.20
62402;BME280;48440;51.224;22.506;2023-02-14T06:47:31;100613.16;;;3.88;76.19
62402;BME280;48440;51.224;22.506;2023-02-14T06:49:57;100622.41;;;3.85;75.99
62402;BME280;48440;51.224;22.506;2023-02-14T06:52:24;100622.06;;;3.88;75.59
62402;BME280;48440;51.224;22.506;2023-02-14T06:54:50;100620.22;;;3.89;75.93
62402;BME280;48440;51.224;22.506;2023-02-14T06:57:15;100624.91;;;3.87;75.81
62402;BME280;48440;51.224;22.506;2023-02-14T06:59:41;100616.50;;;3.90;76.28
62402;BME280;48440;51.224;22.506;2023-02-14T07:02:09;100634.09;;;3.92;75.80
62402;BME280;48440;51.224;22.506;2023-02-14T07:04:34;100632.06;;;3.94;76.11
62402;BME280;48440;51.224;22.506;2023-02-14T07:06:59;100630.03;;;3.96;76.12
62402;BME280;48440;51.224;22.506;2023-02-14T07:09:28;100637.59;;;3.93;76.08
62402;BME280;48440;51.224;22.506;2023-02-14T07:11:54;100640.47;;;3.91;76.65
62402;BME280;48440;51.224;22.506;2023-02-14T07:14:19;100644.84;;;3.92;76.63
62402;BME280;48440;51.224;22.506;2023-02-14T07:16:45;100640.78;;;3.96;76.24
62402;BME280;48440;51.224;22.506;2023-02-14T07:19:10;100641.44;;;3.98;76.33
62402;BME280;48440;51.224;22.506;2023-02-14T07:21:35;100641.06;;;4.01;76.39
62402;BME280;48440;51.224;22.506;2023-02-14T07:24:01;100647.31;;;4.17;76.22
62402;BME280;48440;51.224;22.506;2023-02-14T07:26:26;100644.88;;;4.30;75.32
62402;BME280;48440;51.224;22.506;2023-02-14T07:28:52;100637.94;;;4.35;75.07
62402;BME280;48440;51.224;22.506;2023-02-14T07:31:18;100639.44;;;4.38;74.97
62402;BME280;48440;51.224;22.506;2023-02-14T07:33:45;100653.53;;;4.40;74.78
62402;BME280;48440;51.224;22.506;2023-02-14T07:36:10;100638.78;;;4.36;74.49
62402;BME280;48440;51.224;22.506;2023-02-14T07:38:36;100645.66;;;4.38;74.26
62402;BME280;48440;51.224;22.506;2023-02-14T07:41:02;100639.34;;;4.46;74.23
62402;BME280;48440;51.224;22.506;2023-02-14T07:43:30;100645.47;;;4.40;74.26
62402;BME280;48440;51.224;22.506;2023-02-14T07:45:59;100641.47;;;4.36;74.25
62402;BME280;48440;51.224;22.506;2023-02-14T07:48:24;100641.47;;;4.36;74.84
62402;BME280;48440;51.224;22.506;2023-02-14T07:50:50;100636.28;;;4.34;75.02
62402;BME280;48440;51.224;22.506;2023-02-14T07:53:15;100645.47;;;4.40;74.60
62402;BME280;48440;51.224;22.506;2023-02-14T07:55:41;100643.03;;;4.45;74.69
62402;BME280;48440;51.224;22.506;2023-02-14T07:58:06;100649.25;;;4.46;74.96
62402;BME280;48440;51.224;22.506;2023-02-14T08:00:32;100647.59;;;4.44;74.55
62402;BME280;48440;51.224;22.506;2023-02-14T08:02:57;100653.13;;;4.43;74.29
62402;BME280;48440;51.224;22.506;2023-02-14T08:05:23;100652.06;;;4.52;73.63
62402;BME280;48440;51.224;22.506;2023-02-14T08:07:48;100649.19;;;4.54;73.64
62402;BME280;48440;51.224;22.506;2023-02-14T08:10:15;100645.28;;;4.56;73.78
62402;BME280;48440;51.224;22.506;2023-02-14T08:12:40;100650.50;;;4.58;73.49
62402;BME280;48440;51.224;22.506;2023-02-14T08:15:31;100647.44;;;4.61;73.74
62402;BME280;48440;51.224;22.506;2023-02-14T08:18:16;100655.31;;;5.21;72.27
62402;BME280;48440;51.224;22.506;2023-02-14T08:20:43;100663.47;;;5.28;71.97
62402;BME280;48440;51.224;22.506;2023-02-14T08:23:09;100660.81;;;5.13;71.66
62402;BME280;48440;51.224;22.506;2023-02-14T08:25:34;100664.69;;;4.96;72.22
62402;BME280;48440;51.224;22.506;2023-02-14T08:28:01;100662.19;;;4.80;72.89
62402;BME280;48440;51.224;22.506;2023-02-14T08:30:27;100667.66;;;4.71;73.44
62402;BME280;48440;51.224;22.506;2023-02-14T08:32:52;100679.16;;;4.65;73.43
62402;BME280;48440;51.224;22.506;2023-02-14T08:35:18;100669.19;;;4.51;73.61
62402;BME280;48440;51.224;22.506;2023-02-14T08:37:43;100660.31;;;4.51;74.08
62402;BME280;48440;51.224;22.506;2023-02-14T08:40:09;100674.09;;;4.48;74.22
62402;BME280;48440;51.224;22.506;2023-02-14T08:42:34;100675.41;;;4.52;73.45
62402;BME280;48440;51.224;22.506;2023-02-14T08:45:00;100682.00;;;4.49;73.58
62402;BME280;48440;51.224;22.506;2023-02-14T08:47:26;100679.47;;;4.48;74.08
62402;BME280;48440;51.224;22.506;2023-02-14T08:49:51;100680.84;;;4.43;74.31
62402;BME280;48440;51.224;22.506;2023-02-14T08:52:17;100680.69;;;4.45;74.35
62402;BME280;48440;51.224;22.506;2023-02-14T08:54:42;100679.13;;;4.51;73.87
62402;BME280;48440;51.224;22.506;2023-02-14T08:57:08;100681.44;;;4.54;74.10
62402;BME280;48440;51.224;22.506;2023-02-14T08:59:33;100694.34;;;4.58;74.43
62402;BME280;48440;51.224;22.506;2023-02-14T09:01:59;100698.72;;;4.59;74.44
62402;BME280;48440;51.224;22.506;2023-02-14T09:04:24;100690.47;;;4.61;73.78
62402;BME280;48440;51.224;22.506;2023-02-14T09:06:50;100693.16;;;4.61;73.69
62402;BME280;48440;51.224;22.506;2023-02-14T09:09:15;100693.63;;;4.64;73.97
62402;BME280;48440;51.224;22.506;2023-02-14T09:11:42;100693.44;;;4.66;73.93
62402;BME280;48440;51.224;22.506;2023-02-14T09:14:08;100699.53;;;4.60;73.53
62402;BME280;48440;51.224;22.506;2023-02-14T09:16:33;100693.34;;;4.59;73.73
62402;BME280;48440;51.224;22.506;2023-02-14T09:18:59;100690.34;;;4.54;74.72
62402;BME280;48440;51.224;22.506;2023-02-14T09:21:26;100695.72;;;4.54;74.81
62402;BME280;48440;51.224;22.506;2023-02-14T09:23:52;100687.13;;;4.59;75.07
62402;BME280;48440;51.224;22.506;2023-02-14T09:26:18;100690.00;;;4.57;74.50
62402;BME280;48440;51.224;22.506;2023-02-14T09:28:44;100686.09;;;4.60;74.20
62402;BME280;48440;51.224;22.506;2023-02-14T09:31:20;100689.25;;;4.63;73.97
62402;BME280;48440;51.224;22.506;2023-02-14T09:33:47;100698.88;;;4.58;74.37
62402;BME280;48440;51.224;22.506;2023-02-14T09:36:32;100703.53;;;4.64;74.37
62402;BME280;48440;51.224;22.506;2023-02-14T09:38:57;100702.13;;;4.68;73.97
62402;BME280;48440;51.224;22.506;2023-02-14T09:43:58;100705.41;;;4.63;73.96
62402;BME280;48440;51.224;22.506;2023-02-14T09:46:25;100716.50;;;4.60;74.10
62402;BME280;48440;51.224;22.506;2023-02-14T09:48:53;100702.06;;;4.61;74.24
62402;BME280;48440;51.224;22.506;2023-02-14T09:51:22;100708.94;;;4.64;74.56
62402;BME280;48440;51.224;22.506;2023-02-14T09:54:03;100703.81;;;4.69;74.18
62402;BME280;48440;51.224;22.506;2023-02-14T09:59:34;100708.66;;;4.73;74.34
62402;BME280;48440;51.224;22.506;2023-02-14T10:05:09;100706.91;;;4.81;73.91
62402;BME280;48440;51.224;22.506;2023-02-14T10:10:46;100711.81;;;4.77;73.57
62402;BME280;48440;51.224;22.506;2023-02-14T10:16:08;100706.78;;;4.74;73.97
62402;BME280;48440;51.224;22.506;2023-02-14T10:18:44;100708.56;;;4.82;74.10
62402;BME280;48440;51.224;22.506;2023-02-14T10:21:26;100704.31;;;4.87;74.06
62402;BME280;48440;51.224;22.506;2023-02-14T10:23:59;100698.75;;;5.03;73.94
62402;BME280;48440;51.224;22.506;2023-02-14T10:26:35;100701.66;;;5.17;73.68
62402;BME280;48440;51.224;22.506;2023-02-14T10:29:05;100701.28;;;5.20;73.64
62402;BME280;48440;51.224;22.506;2023-02-14T10:31:48;100706.19;;;5.31;73.12
62402;BME280;48440;51.224;22.506;2023-02-14T10:34:37;100709.34;;;5.34;72.72
62402;BME280;48440;51.224;22.506;2023-02-14T10:45:25;100707.94;;;5.24;72.82
62402;BME280;48440;51.224;22.506;2023-02-14T10:48:00;100704.59;;;5.22;72.78
62402;BME280;48440;51.224;22.506;2023-02-14T10:53:06;100694.22;;;5.19;72.80
62402;BME280;48440;51.224;22.506;2023-02-14T10:58:12;100696.63;;;5.14;72.57
62402;BME280;48440;51.224;22.506;2023-02-14T11:01:05;100700.63;;;5.18;73.26
62402;BME280;48440;51.224;22.506;2023-02-14T11:03:30;100694.41;;;5.17;73.08
62402;BME280;48440;51.224;22.506;2023-02-14T11:05:57;100701.06;;;5.21;73.28
62402;BME280;48440;51.224;22.506;2023-02-14T11:08:23;100700.16;;;5.29;72.78
62402;BME280;48440;51.224;22.506;2023-02-14T11:10:51;100698.75;;;5.33;72.62
62402;BME280;48440;51.224;22.506;2023-02-14T11:13:31;100703.03;;;5.27;72.04
62402;BME280;48440;51.224;22.506;2023-02-14T11:15:59;100697.34;;;5.22;72.94
62402;BME280;48440;51.224;22.506;2023-02-14T11:18:25;100697.34;;;5.22;72.94
62402;BME280;48440;51.224;22.506;2023-02-14T11:21:05;100681.78;;;5.32;73.09
62402;BME280;48440;51.224;22.506;2023-02-14T11:26:01;100692.81;;;5.37;72.68
62402;BME280;48440;51.224;22.506;2023-02-14T11:28:27;100680.56;;;5.35;72.63
62402;BME280;48440;51.224;22.506;2023-02-14T11:30:53;100690.41;;;5.28;72.99
62402;BME280;48440;51.224;22.506;2023-02-14T11:33:33;100686.03;;;5.27;72.47
62402;BME280;48440;51.224;22.506;2023-02-14T11:36:03;100672.75;;;5.25;72.61
62402;BME280;48440;51.224;22.506;2023-02-14T11:38:32;100679.44;;;5.29;72.58
62402;BME280;48440;51.224;22.506;2023-02-14T11:41:00;100685.28;;;5.33;73.20
62402;BME280;48440;51.224;22.506;2023-02-14T11:48:37;100671.84;;;5.33;73.07
62402;BME280;48440;51.224;22.506;2023-02-14T11:51:09;100677.69;;;5.36;73.03
62402;BME280;48440;51.224;22.506;2023-02-14T11:56:14;100663.03;;;5.24;73.10
62402;BME280;48440;51.224;22.506;2023-02-14T11:58:41;100676.00;;;5.21;73.06
62402;BME280;48440;51.224;22.506;2023-02-14T12:01:30;100671.22;;;5.16;72.93
62402;BME280;48440;51.224;22.506;2023-02-14T12:04:13;100676.31;;;5.11;73.31
62402;BME280;48440;51.224;22.506;2023-02-14T12:06:39;100676.13;;;5.13;73.43
62402;BME280;48440;51.224;22.506;2023-02-14T12:11:59;100674.81;;;5.08;73.53
62402;BME280;48440;51.224;22.506;2023-02-14T12:14:33;100679.19;;;5.09;73.24
62402;BME280;48440;51.224;22.506;2023-02-14T12:17:27;100679.19;;;5.09;73.38
62402;BME280;48440;51.224;22.506;2023-02-14T12:20:22;100675.28;;;5.12;73.70
62402;BME280;48440;51.224;22.506;2023-02-14T12:23:25;100683.91;;;5.07;73.59
62402;BME280;48440;51.224;22.506;2023-02-14T12:25:57;100670.66;;;5.06;73.51
62402;BME280;48440;51.224;22.506;2023-02-14T12:28:30;100666.56;;;5.10;73.63
62402;BME280;48440;51.224;22.506;2023-02-14T12:31:07;100667.78;;;5.07;73.59
62402;BME280;48440;51.224;22.506;2023-02-14T12:33:32;100675.19;;;5.05;73.79
62402;BME280;48440;51.224;22.506;2023-02-14T12:39:11;100671.84;;;5.03;73.60
62402;BME280;48440;51.224;22.506;2023-02-14T12:47:18;100680.19;;;4.94;74.27
62402;BME280;48440;51.224;22.506;2023-02-14T12:50:02;100676.88;;;4.92;74.26
62402;BME280;48440;51.224;22.506;2023-02-14T12:58:48;100664.25;;;4.92;74.53
62402;BME280;48440;51.224;22.506;2023-02-14T13:01:46;100671.50;;;4.92;74.40
62402;BME280;48440;51.224;22.506;2023-02-14T13:09:34;100673.44;;;4.83;74.49
62402;BME280;48440;51.224;22.506;2023-02-14T13:17:44;100670.44;;;4.78;74.48
62402;BME280;48440;51.224;22.506;2023-02-14T13:23:21;100678.16;;;4.81;75.11
62402;BME280;48440;51.224;22.506;2023-02-14T13:25:58;100669.91;;;4.83;75.44
62402;BME280;48440;51.224;22.506;2023-02-14T13:28:26;100675.28;;;4.83;75.24
62402;BME280;48440;51.224;22.506;2023-02-14T13:30:54;100675.75;;;4.86;75.04
62402;BME280;48440;51.224;22.506;2023-02-14T13:33:30;100672.88;;;4.88;75.16
62402;BME280;48440;51.224;22.506;2023-02-14T13:36:00;100680.13;;;4.87;74.93
62402;BME280;48440;51.224;22.506;2023-02-14T13:38:27;100683.81;;;4.86;74.72
62402;BME280;48440;51.224;22.506;2023-02-14T13:40:56;100687.34;;;4.87;75.07
62402;BME280;48440;51.224;22.506;2023-02-14T13:46:28;100689.94;;;4.80;74.95
62402;BME280;48440;51.224;22.506;2023-02-14T13:51:55;100684.25;;;4.75;75.16
62402;BME280;48440;51.224;22.506;2023-02-14T13:54:27;100686.78;;;4.76;74.99
62402;BME280;48440;51.224;22.506;2023-02-14T13:56:53;100678.69;;;4.76;74.99
62402;BME280;48440;51.224;22.506;2023-02-14T13:59:30;100686.78;;;4.76;75.15
62402;BME280;48440;51.224;22.506;2023-02-14T14:04:44;100681.75;;;4.73;76.02
62402;BME280;48440;51.224;22.506;2023-02-14T14:07:24;100686.94;;;4.75;75.36
62402;BME280;48440;51.224;22.506;2023-02-14T14:09:59;100678.41;;;4.71;75.80
62402;BME280;48440;51.224;22.506;2023-02-14T14:22:47;100682.94;;;4.71;75.59
62402;BME280;48440;51.224;22.506;2023-02-14T14:25:38;100696.41;;;4.71;75.64
62402;BME280;48440;51.224;22.506;2023-02-14T14:28:12;100683.59;;;4.73;75.46
62402;BME280;48440;51.224;22.506;2023-02-14T14:30:42;100687.41;;;4.78;76.68
62402;BME280;48440;51.224;22.506;2023-02-14T14:35:37;100692.16;;;4.76;76.18
62402;BME280;48440;51.224;22.506;2023-02-14T14:38:03;100698.91;;;4.72;76.15
62402;BME280;48440;51.224;22.506;2023-02-14T14:40:33;100693.88;;;4.69;75.86
62402;BME280;48440;51.224;22.506;2023-02-14T14:43:12;100694.00;;;4.61;76.14
62402;BME280;48440;51.224;22.506;2023-02-14T14:45:38;100701.88;;;4.63;76.36
62402;BME280;48440;51.224;22.506;2023-02-14T14:51:00;100700.75;;;4.57;76.08
62402;BME280;48440;51.224;22.506;2023-02-14T14:54:14;100690.53;;;4.53;76.49
62402;BME280;48440;51.224;22.506;2023-02-14T14:56:58;100685.34;;;4.51;75.97
62402;BME280;48440;51.224;22.506;2023-02-14T14:59:35;100690.72;;;4.51;76.18
62402;BME280;48440;51.224;22.506;2023-02-14T15:02:19;100696.81;;;4.45;76.16
62402;BME280;48440;51.224;22.506;2023-02-14T15:04:45;100698.00;;;4.42;76.39
62402;BME280;48440;51.224;22.506;2023-02-14T15:07:39;100697.16;;;4.42;76.77
62402;BME280;48440;51.224;22.506;2023-02-14T15:10:27;100696.63;;;4.47;76.27
62402;BME280;48440;51.224;22.506;2023-02-14T15:12:56;100693.41;;;4.51;76.14